Latest Coastal Weather Observations for Norah Head

IDN60701

Issued at 8:41 am EDT Wednesday 7 December 2016 (issued every 10 minutes, with the page automatically refreshed every 10 minutes)

About coastal observations | Map of coastal stations | Coastal observations for NSW | Marine services | Other Formats
Station Details ID: 061366 Name: NORAH HEAD AWS Lat: -33.28 Lon: 151.58 Height: 18.8 m
Data from the previous 72 hours. | See also: Recent months at Norah Head
Date/Time
EDT
Temp
°C
Wind Pressure Rain since
9am
mm
Weather Cloud Vis
km
Sea
Height
m
Swell
Dir  Spd
kts
Gust
kts
hPa Trend Height
m
Period
s
Dir
07/08:30am 21.0 SW 5 7 1014.8 - 24.8 - - - - - - -
07/08:00am 20.3 SW 4 7 1014.6 - 24.8 - - - - - - -
07/07:30am 19.9 W 4 7 1014.1 - 24.8 - - - - - - -
07/07:00am 19.6 W 4 5 1013.8 - 24.8 - - - - - - -
07/06:30am 19.4 WNW 3 3 1013.5 - 24.8 - - - - - - -
07/06:00am 18.9 SW 3 5 1013.3 - 24.8 Recent precip. - - - - - -
07/05:30am 18.1 WSW 5 7 1013.2 - 24.6 - - - - - - -
07/05:00am 18.7 SSW 9 14 1013.1 - 24.4 - - - - - - -
07/04:30am 19.6 SSW 7 11 1012.9 - 24.4 - - - - - - -
07/04:00am 19.3 SW 8 14 1012.9 - 24.0 - - - - - - -
07/03:30am 19.9 SSW 12 16 1012.2 - 23.0 - - - - - - -
07/03:00am 19.4 SW 12 18 1012.7 - 22.4 Rain - - - - - -
07/02:30am 20.7 SSW 14 21 1012.7 - 21.2 - - - - - - -
07/02:00am 20.5 SW 3 12 1012.9 - 18.2 - - - - - - -
07/01:30am 19.6 WNW 4 7 1012.3 - 17.2 - - - - - - -
07/01:00am 20.0 NW 3 7 1012.1 - 16.2 - - - - - - -
07/12:30am 20.6 NW 5 8 1012.2 - 15.6 - - - - - - -
07/12:00am 20.6 NW 6 9 1012.3 - 15.4 - - - - - - -
 
Date/Time
EDT
Temp
°C
Wind Pressure Rain since
9am
mm
Weather Cloud Vis
km
Sea
Height
m
Swell
Dir  Spd
kts
Gust
kts
hPa Trend Height
m
Period
s
Dir
06/11:30pm 21.2 NNW 5 7 1012.3 - 15.4 - - - - - - -
06/11:00pm 21.4 NW 4 6 1012.2 - 15.4 - - - - - - -
06/10:30pm 21.5 NW 4 6 1012.0 - 15.2 - - - - - - -
06/10:00pm 21.6 NW 3 6 1011.9 - 15.2 - - - - - - -
06/09:30pm 21.7 NW 4 6 1011.6 - 15.0 - - - - - - -
06/09:00pm 21.6 WNW 5 7 1011.3 - 14.8 - - - - - - -
06/08:30pm 21.5 WNW 5 7 1010.9 - 14.8 - - - - - - -
06/08:00pm 21.4 NW 4 5 1010.6 - 14.8 - - - - - - -
06/07:30pm 21.5 NW 3 4 1010.3 - 14.8 - - - - - - -
06/07:00pm 21.7 CALM 0 0 1010.1 - 14.8 - - - - - - -
06/06:30pm 21.4 WSW 3 6 1010.4 - 14.8 - - - - - - -
06/06:00pm 21.4 SW 2 3 1010.7 - 14.6 Recent precip. - - - - - -
06/05:30pm 21.2 SSW 5 8 1010.5 - 14.4 - - - - - - -
06/05:00pm 21.3 S 9 12 1010.5 - 14.2 - - - - - - -
06/04:30pm 21.2 S 8 11 1010.5 - 9.2 - - - - - - -
06/04:00pm 21.3 S 11 16 1010.4 - 6.8 - - - - - - -
06/03:30pm 21.3 S 15 19 1010.7 - 1.8 - - - - - - -
06/03:00pm 21.7 S 15 17 1010.1 - 0.0 - - - - - - -
06/02:30pm 22.2 S 12 15 1010.5 - 0.0 - - - - - - -
06/02:00pm 22.9 S 7 10 1010.7 - 0.0 - - - - - - -
06/01:30pm 23.0 S 4 6 1010.7 - 0.0 - - - - - - -
06/01:00pm 22.4 SSW 6 8 1011.2 - 0.0 - - - - - - -
06/12:30pm 22.4 SSW 6 9 1011.2 - 0.0 - - - - - - -
06/12:00pm 22.3 SSW 6 7 1011.2 - 0.0 - - - - - - -
06/11:30am 22.4 SSW 6 9 1011.5 - 0.0 - - - - - - -
06/11:00am 21.9 SSW 7 10 1011.7 - 0.0 - - - - - - -
06/10:30am 21.6 SW 8 11 1011.8 - 0.0 - - - - - - -
06/10:00am 21.6 SW 8 11 1011.4 - 0.0 - - - - - - -
06/09:30am 21.2 SW 5 8 1011.9 - 0.0 - - - - - - -
06/09:00am 20.9 SW 6 8 1011.7 - 13.0 - - - - - - -
06/08:30am 20.6 WSW 4 7 1012.0 - 13.0 - - - - - - -
06/08:00am 20.6 SW 5 9 1011.6 - 13.0 - - - - - - -
06/07:30am 20.6 SW 5 8 1011.5 - 13.0 - - - - - - -
06/07:00am 20.5 WSW 4 8 1011.2 - 13.0 - - - - - - -
06/06:30am 20.7 SSW 12 17 1010.6 - 13.0 - - - - - - -
06/06:00am 20.6 SSW 11 15 1010.5 - 13.0 - - - - - - -
06/05:30am 20.6 SSW 12 15 1010.5 - 13.0 - - - - - - -
06/05:00am 20.7 SSW 12 17 1010.4 - 13.0 - - - - - - -
06/04:30am 20.7 SSW 11 14 1010.7 - 13.0 - - - - - - -
06/04:00am 20.8 SSW 12 15 1010.8 - 13.0 - - - - - - -
06/03:30am 21.1 SSW 10 15 1011.2 - 13.0 - - - - - - -
06/03:00am 21.3 SSW 10 13 1011.0 - 13.0 - - - - - - -
06/02:30am 21.4 SSW 9 12 1011.6 - 13.0 - - - - - - -
06/02:00am 21.2 SSW 12 16 1012.0 - 13.0 - - - - - - -
06/01:30am 21.1 S 15 20 1011.7 - 13.0 - - - - - - -
06/01:00am 21.0 SSW 17 23 1012.0 - 13.0 - - - - - - -
06/12:30am 21.0 SSW 21 28 1012.4 - 13.0 - - - - - - -
06/12:00am 21.6 SSW 21 29 1012.9 - 12.8 - - - - - - -
 
Date/Time
EDT
Temp
°C
Wind Pressure Rain since
9am
mm
Weather Cloud Vis
km
Sea
Height
m
Swell
Dir  Spd
kts
Gust
kts
hPa Trend Height
m
Period
s
Dir
05/11:30pm 22.1 SSW 22 30 1012.0 - 12.8 - - - - - - -
05/11:09pm 23.0 SSW 17 30 1011.6 - 12.8 - - - - - - -
05/11:00pm 23.2 WSW 6 18 1011.7 - 12.8 - - - - - - -
05/10:30pm 23.5 NNW 5 7 1010.8 - 12.8 - - - - - - -
05/10:00pm 23.6 NNW 9 11 1010.4 - 12.8 - - - - - - -
05/09:30pm 23.6 N 10 12 1010.1 - 12.8 - - - - - - -
05/09:00pm 23.6 NNW 10 13 1010.1 - 12.8 - - - - - - -
05/08:30pm 23.8 NNW 9 11 1009.9 - 12.8 - - - - - - -
05/08:00pm 23.4 NNW 7 8 1009.5 - 12.8 - - - - - - -
05/07:30pm 23.1 NNW 6 8 1009.6 - 12.8 - - - - - - -
05/07:00pm 22.9 NNW 5 7 1009.4 - 12.8 - - - - - - -
05/06:30pm 23.2 E 14 17 1008.5 - 12.8 - - - - - - -
05/06:00pm 23.2 SE 10 15 1008.7 - 12.8 Recent precip. - - - - - -
05/05:30pm 23.0 SE 17 21 1008.1 - 4.6 - - - - - - -
05/05:00pm 23.3 SSE 9 17 1008.4 - 4.4 - - - - - - -
05/04:46pm 23.1 NNE 20 33 1008.1 - 4.2 - - - - - - -
05/04:39pm 23.2 E 14 27 1005.9 - 4.2 - - - - - - -
05/04:37pm 23.4 SE 11 20 1005.6 - 4.2 - - - - - - -
05/04:30pm 23.6 S 5 9 1006.3 - 2.8 - - - - - - -
05/04:00pm 24.7 NNE 12 15 1005.9 - 0.0 - - - - - - -
05/03:30pm 27.5 ENE 8 10 1005.8 - 0.0 - - - - - - -
05/03:00pm 26.3 NE 7 10 1005.9 - 0.0 - - - - - - -
05/02:30pm 25.8 NE 8 10 1006.3 - 0.0 - - - - - - -
05/02:00pm 27.1 ENE 7 9 1006.8 - 0.0 - - - - - - -
05/01:30pm 26.8 NE 7 8 1007.1 - 0.0 - - - - - - -
05/01:00pm 26.1 NE 5 7 1007.4 - 0.0 - - - - - - -
05/12:30pm 26.9 ENE 3 4 1007.6 - 0.0 - - - - - - -
05/12:00pm 27.6 NE 5 5 1008.2 - 0.0 - - - - - - -
05/11:30am 25.3 NNE 5 5 1008.3 - 0.0 - - - - - - -
05/11:00am 24.4 NNE 6 7 1008.8 - 0.0 - - - - - - -
05/10:30am 23.8 NNE 5 6 1009.0 - 0.0 - - - - - - -
05/10:00am 24.3 N 6 8 1009.1 - 0.0 - - - - - - -
05/09:30am 23.6 N 7 8 1009.4 - 0.0 - - - - - - -
05/09:00am 22.9 NNW 4 5 1009.6 - 0.0 - - - - - - -
05/08:30am 22.8 CALM 0 0 1009.8 - 0.0 - - - - - - -
05/08:00am 22.3 CALM 0 0 1009.9 - 0.0 - - - - - - -
05/07:30am 22.2 SW 6 9 1010.7 - 0.0 - - - - - - -
05/07:00am 21.9 S 12 15 1010.3 - 0.0 - - - - - - -
05/06:30am 22.0 SSW 15 21 1011.5 - 0.0 - - - - - - -
05/06:00am 21.9 SW 10 15 1011.5 - 0.0 - - - - - - -
05/05:56am 21.9 SW 10 13 1010.7 - 0.0 - - - - - - -
05/05:30am 21.8 S 5 7 1008.7 - 0.0 - - - - - - -
05/05:00am 21.6 SSW 3 3 1008.1 - 0.0 - - - - - - -
05/04:30am 21.9 WSW 2 3 1008.2 - 0.0 - - - - - - -
05/04:00am 21.8 NE 2 3 1007.9 - 0.0 - - - - - - -
05/03:30am 21.7 NE 4 5 1007.9 - 0.0 - - - - - - -
05/03:00am 21.8 NNE 6 7 1008.3 - 0.0 - - - - - - -
05/02:30am 21.9 NNE 9 11 1008.4 - 0.0 - - - - - - -
05/02:00am 21.9 NNE 9 11 1009.0 - 0.0 - - - - - - -
05/01:30am 21.9 NNE 14 19 1009.7 - 0.0 - - - - - - -
05/01:00am 21.8 NNE 13 15 1009.6 - 0.0 - - - - - - -
05/12:30am 21.9 NNE 13 17 1010.4 - 0.0 - - - - - - -
05/12:00am 22.0 NNE 6 8 1011.4 - 0.0 - - - - - - -
 
Date/Time
EDT
Temp
°C
Wind Pressure Rain since
9am
mm
Weather Cloud Vis
km
Sea
Height
m
Swell
Dir  Spd
kts
Gust
kts
hPa Trend Height
m
Period
s
Dir
04/11:30pm 22.1 NNE 10 12 1011.5 - 0.0 - - - - - - -
04/11:00pm 22.1 NNE 10 12 1012.2 - 0.0 - - - - - - -
04/10:30pm 22.2 NNE 12 13 1012.4 - 0.0 - - - - - - -
04/10:00pm 22.3 NNE 13 15 1012.4 - 0.0 - - - - - - -
04/09:30pm 22.2 NNE 12 15 1012.5 - 0.0 - - - - - - -
04/09:00pm 22.2 NE 12 14 1012.5 - 0.0 - - - - - - -
04/08:30pm 22.3 NE 11 14 1012.4 - 0.0 - - - - - - -
04/08:00pm 22.5 NNE 11 13 1012.6 - 0.0 - - - - - - -
04/07:30pm 22.7 NE 11 13 1012.5 - 0.0 - - - - - - -
04/07:00pm 23.0 NE 11 12 1012.2 - 0.0 - - - - - - -
04/06:30pm 23.0 NNE 10 12 1012.2 - 0.0 - - - - - - -
04/06:00pm 23.2 NE 10 12 1012.2 - 0.0 - - - - - - -
04/05:30pm 24.4 NE 10 12 1012.1 - 0.0 - - - - - - -
04/05:00pm 25.6 NE 11 13 1012.2 - 0.0 - - - - - - -
04/04:30pm 25.7 NE 12 14 1012.6 - 0.0 - - - - - - -
04/04:00pm 26.6 ENE 11 13 1012.7 - 0.0 - - - - - - -
04/03:30pm 26.8 ENE 10 13 1013.1 - 0.0 - - - - - - -
04/03:00pm 25.3 ENE 10 11 1013.3 - 0.0 - - - - - - -
04/02:30pm 24.7 E 11 13 1013.4 - 0.0 - - - - - - -
04/02:00pm 25.4 ENE 10 11 1013.7 - 0.0 - - - - - - -
04/01:30pm 24.8 E 10 13 1013.9 - 0.0 - - - - - - -
04/01:00pm 25.5 E 10 11 1014.3 - 0.0 - - - - - - -
04/12:30pm 25.6 E 8 9 1014.8 - 0.0 - - - - - - -
04/12:00pm 25.7 E 7 8 1015.0 - 0.0 - - - - - - -
04/11:30am 24.5 E 5 6 1015.5 - 0.0 - - - - - - -
04/11:00am 24.0 ESE 3 5 1015.6 - 0.0 - - - - - - -
04/10:30am 24.2 SSE 3 4 1015.7 - 0.0 - - - - - - -
04/10:00am 24.1 SSE 3 4 1016.2 - 0.0 - - - - - - -
04/09:30am 23.5 S 5 6 1016.2 - 0.0 - - - - - - -
04/09:00am 22.7 SSW 3 5 1016.2 - 0.0 - - - - - - -

Other Formats:

Comma delimited format used in spreadsheet applications
http://www.bom.gov.au/fwo/IDN60701/IDN60701.95770.axf

JavaScript Object Notation format (JSON) in row-major order
http://www.bom.gov.au/fwo/IDN60701/IDN60701.95770.json